createdAt,value
2023-10-16T00:01:50.769Z,6.53
2023-10-16T00:04:20.113Z,8.27
2023-10-16T00:06:50.489Z,11.80
2023-10-16T00:09:23.253Z,7.38
2023-10-16T00:11:50.141Z,7.53
2023-10-16T00:14:28.466Z,6.53
2023-10-16T00:16:55.458Z,7.50
2023-10-16T00:19:24.400Z,9.30
2023-10-16T00:21:53.340Z,9.15
2023-10-16T00:24:20.381Z,7.78
2023-10-16T00:26:50.572Z,6.93
2023-10-16T00:29:20.800Z,6.93
2023-10-16T00:31:52.516Z,6.35
2023-10-16T00:34:23.469Z,6.53
2023-10-16T00:36:55.740Z,6.20
2023-10-16T00:39:26.586Z,7.53
2023-10-16T00:41:53.508Z,8.53
2023-10-16T00:44:23.277Z,9.07
2023-10-16T00:46:54.208Z,7.50
2023-10-16T00:49:24.322Z,7.25
2023-10-16T00:51:51.573Z,8.48
2023-10-16T00:54:29.272Z,8.43
2023-10-16T00:57:01.397Z,8.63
2023-10-16T00:59:29.663Z,8.40
2023-10-16T01:02:08.792Z,6.60
2023-10-16T01:04:36.604Z,10.68
2023-10-16T01:07:06.722Z,9.17
2023-10-16T01:09:37.459Z,9.25
2023-10-16T01:12:07.849Z,9.60
2023-10-16T01:14:39.676Z,8.27
2023-10-16T01:17:10.654Z,8.75
2023-10-16T01:19:38.160Z,6.80
2023-10-16T01:22:05.262Z,7.53
2023-10-16T01:24:32.164Z,9.50
2023-10-16T01:27:15.780Z,9.00
2023-10-16T01:29:42.924Z,9.57
2023-10-16T01:32:09.808Z,6.20
2023-10-16T01:34:36.651Z,9.40
2023-10-16T01:37:10.279Z,9.50
2023-10-16T01:39:49.708Z,7.03
2023-10-16T01:42:19.115Z,11.77
2023-10-16T01:44:46.680Z,7.90
2023-10-16T01:47:17.350Z,7.88
2023-10-16T01:49:46.017Z,7.25
2023-10-16T01:52:13.328Z,7.68
2023-10-16T01:54:47.964Z,7.70
2023-10-16T01:57:16.407Z,10.83
2023-10-16T01:59:50.862Z,8.93
2023-10-16T02:02:19.468Z,8.18
2023-10-16T02:04:46.933Z,7.38
2023-10-16T02:07:13.920Z,7.00
2023-10-16T02:09:42.147Z,6.47
2023-10-16T02:12:16.222Z,10.30
2023-10-16T02:14:45.721Z,8.38
2023-10-16T02:17:20.577Z,8.32
2023-10-16T02:19:48.791Z,8.25
2023-10-16T02:22:17.755Z,6.50
2023-10-16T02:24:46.378Z,8.95
2023-10-16T02:27:14.052Z,7.35
2023-10-16T02:29:47.140Z,7.50
2023-10-16T02:32:14.631Z,6.55
2023-10-16T02:34:42.392Z,5.50
2023-10-16T02:37:15.218Z,6.72
2023-10-16T02:39:52.266Z,6.78
2023-10-16T02:42:20.565Z,6.80
2023-10-16T02:44:48.888Z,6.22
2023-10-16T02:47:23.049Z,8.03
2023-10-16T02:49:50.144Z,5.95
2023-10-16T02:52:18.430Z,5.00
2023-10-16T02:54:47.993Z,5.70
2023-10-16T02:57:16.064Z,7.28
2023-10-16T02:59:46.746Z,5.13
2023-10-16T03:02:23.757Z,5.40
2023-10-16T03:04:55.600Z,6.22
2023-10-16T03:07:22.784Z,8.63
2023-10-16T03:09:54.029Z,6.40
2023-10-16T03:12:21.604Z,6.63
2023-10-16T03:14:59.616Z,6.70
2023-10-16T03:17:29.337Z,9.05
2023-10-16T03:19:56.527Z,11.20
2023-10-16T03:22:23.966Z,6.07
2023-10-16T03:24:53.241Z,7.00
2023-10-16T03:27:32.498Z,4.38
2023-10-16T03:30:00.060Z,8.13
2023-10-16T03:32:35.435Z,5.20
2023-10-16T03:35:07.025Z,6.63
2023-10-16T03:37:36.557Z,4.87
2023-10-16T03:40:05.744Z,9.82
2023-10-16T03:42:32.671Z,7.95
2023-10-16T03:45:03.125Z,7.45
2023-10-16T03:47:34.214Z,6.40
2023-10-16T03:50:01.254Z,4.33
2023-10-16T03:52:28.227Z,7.80
2023-10-16T03:54:55.230Z,5.55
2023-10-16T03:57:23.958Z,7.07
2023-10-16T03:59:51.173Z,6.35
2023-10-16T04:02:21.509Z,7.17
2023-10-16T04:04:50.144Z,7.68
2023-10-16T04:07:17.249Z,9.27
2023-10-16T04:09:51.110Z,6.25
2023-10-16T04:12:22.912Z,8.57
2023-10-16T04:15:05.400Z,5.43
2023-10-16T04:17:35.988Z,8.23
2023-10-16T04:20:23.176Z,6.63
2023-10-16T04:22:59.361Z,7.00
2023-10-16T04:25:34.896Z,7.55
2023-10-16T04:28:20.010Z,11.77
2023-10-16T04:30:49.239Z,6.72
2023-10-16T04:33:25.547Z,8.50
2023-10-16T04:35:52.900Z,6.97
2023-10-16T04:38:31.883Z,7.63
2023-10-16T04:41:17.326Z,9.90
2023-10-16T04:44:02.972Z,10.45
2023-10-16T04:46:49.751Z,8.43
2023-10-16T04:49:17.165Z,11.90
2023-10-16T04:51:53.901Z,10.10
2023-10-16T04:54:39.757Z,10.53
2023-10-16T04:57:06.671Z,11.18
2023-10-16T04:59:59.417Z,8.98
2023-10-16T05:02:35.513Z,11.68
2023-10-16T05:05:41.458Z,9.93
2023-10-16T05:08:28.441Z,15.47
2023-10-16T05:11:14.085Z,12.60
2023-10-16T05:13:43.116Z,10.57
2023-10-16T05:16:28.555Z,11.25
2023-10-16T05:19:04.992Z,12.07
2023-10-16T05:21:52.329Z,9.00
2023-10-16T05:24:37.787Z,12.30
2023-10-16T05:27:23.218Z,9.32
2023-10-16T05:30:08.653Z,9.07
2023-10-16T05:32:54.476Z,11.48
2023-10-16T05:35:40.039Z,12.47
2023-10-16T05:38:25.736Z,9.27
2023-10-16T05:41:22.309Z,8.57
2023-10-16T05:44:08.123Z,11.65
2023-10-16T05:46:54.110Z,10.65
2023-10-16T05:49:39.740Z,8.33
2023-10-16T05:52:25.334Z,7.65
2023-10-16T05:55:10.942Z,11.35
2023-10-16T05:57:56.697Z,9.63
2023-10-16T06:00:42.466Z,8.40
2023-10-16T06:03:29.647Z,8.70
2023-10-16T06:06:15.305Z,8.52
2023-10-16T06:09:00.908Z,9.35
2023-10-16T06:11:46.646Z,8.35
2023-10-16T06:14:14.019Z,8.70
2023-10-16T06:16:42.661Z,7.13
2023-10-16T06:19:17.381Z,6.55
2023-10-16T06:21:58.166Z,9.15
2023-10-16T06:24:27.518Z,6.88
2023-10-16T06:26:59.173Z,8.80
2023-10-16T06:29:41.629Z,9.07
2023-10-16T06:32:19.953Z,7.75
2023-10-16T06:34:53.104Z,8.77
2023-10-16T06:37:20.530Z,8.32
2023-10-16T06:39:48.823Z,8.82
2023-10-16T06:42:19.349Z,9.90
2023-10-16T06:44:55.959Z,7.40
2023-10-16T06:47:37.336Z,9.13
2023-10-16T06:50:23.792Z,8.55
2023-10-16T06:52:52.295Z,7.93
2023-10-16T06:55:19.612Z,7.13
2023-10-16T06:57:53.426Z,6.78
2023-10-16T07:00:40.232Z,10.98
2023-10-16T07:03:13.987Z,8.98
2023-10-16T07:05:44.940Z,9.35
2023-10-16T07:08:22.449Z,7.63
2023-10-16T07:10:56.764Z,6.88
2023-10-16T07:13:28.449Z,7.85
2023-10-16T07:16:03.141Z,8.65
2023-10-16T07:18:34.345Z,7.80
2023-10-16T07:21:11.132Z,6.67
2023-10-16T07:23:39.040Z,7.25
2023-10-16T07:26:10.614Z,6.40
2023-10-16T07:28:39.459Z,7.20
2023-10-16T07:31:12.144Z,6.03
2023-10-16T07:33:42.372Z,8.30
2023-10-16T07:36:12.552Z,6.72
2023-10-16T07:38:40.388Z,6.65
2023-10-16T07:41:12.761Z,6.43
2023-10-16T07:43:39.995Z,6.90
2023-10-16T07:46:14.635Z,5.67
2023-10-16T07:48:48.153Z,5.72
2023-10-16T07:51:21.087Z,7.85
2023-10-16T07:53:51.939Z,6.03
2023-10-16T07:56:21.078Z,9.82
2023-10-16T07:58:52.599Z,9.20
2023-10-16T08:01:33.901Z,4.43
2023-10-16T08:04:01.087Z,6.35
2023-10-16T08:06:29.872Z,6.72
2023-10-16T08:09:17.054Z,5.28
2023-10-16T08:11:44.045Z,5.07
2023-10-16T08:14:11.978Z,6.22
2023-10-16T08:16:42.384Z,6.18
2023-10-16T08:19:25.690Z,9.18
2023-10-16T08:21:57.551Z,5.97
2023-10-16T08:24:26.009Z,3.87
2023-10-16T08:26:53.947Z,4.97
2023-10-16T08:29:21.771Z,4.50
2023-10-16T08:31:56.846Z,5.72
2023-10-16T08:34:23.806Z,3.58
2023-10-16T08:36:53.958Z,4.20
2023-10-16T08:39:22.796Z,5.85
2023-10-16T08:42:19.876Z,3.75
2023-10-16T08:44:52.421Z,3.63
2023-10-16T08:47:25.933Z,5.10
2023-10-16T08:49:59.650Z,4.80
2023-10-16T08:52:35.477Z,4.13
2023-10-16T08:55:15.916Z,5.60
2023-10-16T08:57:45.973Z,4.40
2023-10-16T09:00:22.106Z,5.43
2023-10-16T09:02:54.652Z,3.53
2023-10-16T09:05:22.474Z,3.28
2023-10-16T09:07:49.641Z,2.55
2023-10-16T09:10:16.768Z,3.40
2023-10-16T09:12:53.391Z,3.60
2023-10-16T09:15:25.803Z,4.03
2023-10-16T09:17:53.773Z,4.13
2023-10-16T09:20:23.811Z,5.30
2023-10-16T09:22:51.304Z,3.63
2023-10-16T09:25:36.411Z,3.80
2023-10-16T09:28:07.090Z,7.10
2023-10-16T09:30:35.024Z,4.50
2023-10-16T09:33:02.335Z,5.53
2023-10-16T09:35:33.783Z,4.13
2023-10-16T09:38:24.924Z,4.70
2023-10-16T09:41:20.846Z,3.37
2023-10-16T09:44:09.979Z,3.90
2023-10-16T09:46:44.120Z,5.57
2023-10-16T09:49:14.430Z,3.00
2023-10-16T09:51:48.173Z,3.20
2023-10-16T09:54:24.722Z,2.27
2023-10-16T09:56:59.697Z,2.72
2023-10-16T09:59:27.941Z,4.35
2023-10-16T10:02:03.468Z,3.08
2023-10-16T10:04:33.522Z,3.78
2023-10-16T10:07:02.788Z,2.67
2023-10-16T10:09:45.330Z,3.45
2023-10-16T10:12:23.962Z,2.13
2023-10-16T10:15:23.471Z,2.72
2023-10-16T10:17:57.246Z,3.60
2023-10-16T10:20:33.003Z,2.70
2023-10-16T10:23:07.639Z,3.25
2023-10-16T10:25:37.585Z,3.83
2023-10-16T10:28:30.093Z,3.05
2023-10-16T10:31:04.309Z,1.50
2023-10-16T10:33:43.958Z,3.60
2023-10-16T10:36:30.951Z,2.10
2023-10-16T10:39:23.306Z,2.90
2023-10-16T10:41:55.574Z,3.40
2023-10-16T10:44:44.987Z,3.67
2023-10-16T10:47:32.239Z,3.07
2023-10-16T10:50:01.240Z,2.03
2023-10-16T10:52:33.920Z,3.70
2023-10-16T10:55:08.392Z,3.50
2023-10-16T10:57:36.054Z,2.20
2023-10-16T11:00:12.249Z,2.87
2023-10-16T11:02:59.043Z,2.10
2023-10-16T11:05:26.699Z,3.17
2023-10-16T11:08:12.929Z,3.13
2023-10-16T11:10:45.451Z,2.78
2023-10-16T11:13:14.412Z,4.20
2023-10-16T11:15:55.983Z,3.08
2023-10-16T11:18:27.561Z,2.42
2023-10-16T11:21:07.608Z,3.08
2023-10-16T11:23:39.873Z,5.47
2023-10-16T11:26:07.888Z,3.10
2023-10-16T11:28:37.239Z,3.55
2023-10-16T11:31:13.119Z,2.08
2023-10-16T11:34:01.882Z,2.72
2023-10-16T11:36:36.140Z,1.92
2023-10-16T11:39:10.987Z,2.10
2023-10-16T11:41:38.082Z,3.15
2023-10-16T11:44:15.877Z,2.65
2023-10-16T11:46:52.900Z,2.95
2023-10-16T11:49:30.787Z,1.90
2023-10-16T11:52:20.953Z,3.07
2023-10-16T11:54:52.838Z,1.42
2023-10-16T11:57:19.875Z,3.30
2023-10-16T11:59:47.199Z,4.65
2023-10-16T12:02:14.194Z,3.13
2023-10-16T12:04:42.503Z,3.33
2023-10-16T12:07:10.375Z,4.32
2023-10-16T12:09:44.082Z,2.42
2023-10-16T12:12:20.943Z,2.97
2023-10-16T12:14:49.818Z,2.50
2023-10-16T12:17:20.519Z,3.63
2023-10-16T12:19:48.339Z,2.35
2023-10-16T12:22:22.325Z,3.42
2023-10-16T12:24:50.135Z,3.50
2023-10-16T12:27:17.384Z,3.88
2023-10-16T12:29:45.735Z,2.87
2023-10-16T12:32:14.223Z,3.30
2023-10-16T12:34:42.307Z,4.63
2023-10-16T12:37:09.820Z,2.47
2023-10-16T12:39:48.935Z,3.58
2023-10-16T12:42:16.969Z,1.80
2023-10-16T12:44:44.781Z,3.50
2023-10-16T12:47:21.161Z,4.32
2023-10-16T12:49:59.226Z,3.05
2023-10-16T12:52:28.621Z,4.95
2023-10-16T12:54:55.372Z,4.13
2023-10-16T12:57:23.139Z,4.43
2023-10-16T12:59:50.053Z,4.25
2023-10-16T13:02:26.455Z,3.03
2023-10-16T13:04:54.753Z,3.53
2023-10-16T13:07:35.623Z,3.50
2023-10-16T13:10:15.824Z,3.25
2023-10-16T13:12:44.270Z,2.72
2023-10-16T13:15:15.838Z,4.05
2023-10-16T13:17:43.625Z,3.20
2023-10-16T13:20:19.076Z,3.53
2023-10-16T13:22:56.887Z,4.32
2023-10-16T13:25:35.843Z,3.78
2023-10-16T13:28:04.897Z,2.63
2023-10-16T13:30:33.136Z,3.55
2023-10-16T13:33:07.881Z,1.80
2023-10-16T13:35:40.032Z,3.00
2023-10-16T13:38:08.746Z,4.63
2023-10-16T13:40:37.113Z,4.10
2023-10-16T13:43:04.265Z,3.90
2023-10-16T13:45:31.235Z,1.73
2023-10-16T13:47:58.169Z,3.50
2023-10-16T13:50:29.406Z,2.58
2023-10-16T13:52:56.582Z,3.13
2023-10-16T13:55:31.367Z,2.40
2023-10-16T13:57:58.421Z,3.53
2023-10-16T14:00:31.306Z,4.78
2023-10-16T14:03:05.718Z,2.53
2023-10-16T14:05:36.796Z,4.32
2023-10-16T14:08:04.477Z,3.15
2023-10-16T14:10:31.294Z,6.20
2023-10-16T14:13:01.634Z,3.47
2023-10-16T14:15:34.018Z,4.55
2023-10-16T14:18:01.920Z,3.10
2023-10-16T14:20:38.733Z,2.33
2023-10-16T14:23:10.665Z,3.17
2023-10-16T14:25:42.740Z,3.42
2023-10-16T14:28:28.604Z,3.85
2023-10-16T14:30:57.549Z,2.50
2023-10-16T14:33:29.906Z,1.85
2023-10-16T14:36:00.633Z,2.60
2023-10-16T14:38:29.248Z,2.85
2023-10-16T14:41:07.479Z,2.30
2023-10-16T14:43:38.972Z,3.00
2023-10-16T14:46:11.914Z,3.05
2023-10-16T14:48:45.197Z,3.07
2023-10-16T14:51:15.083Z,2.90
2023-10-16T14:53:47.149Z,4.22
2023-10-16T14:56:23.405Z,3.58
2023-10-16T15:01:25.135Z,4.00
2023-10-16T15:03:58.266Z,3.92
2023-10-16T15:06:25.726Z,3.58
2023-10-16T15:08:55.096Z,5.30
2023-10-16T15:11:21.981Z,3.50
2023-10-16T15:13:48.804Z,5.53
2023-10-16T15:16:15.903Z,6.25
2023-10-16T15:18:42.837Z,2.42
2023-10-16T15:21:09.807Z,5.15
2023-10-16T15:23:37.661Z,4.40
2023-10-16T15:26:04.988Z,6.50
2023-10-16T15:28:44.338Z,7.70
2023-10-16T15:31:15.360Z,2.78
2023-10-16T15:33:45.014Z,5.22
2023-10-16T15:36:13.511Z,4.00
2023-10-16T15:38:43.366Z,5.63
2023-10-16T15:41:15.763Z,5.72
2023-10-16T15:43:48.133Z,8.43
2023-10-16T15:46:24.461Z,10.30
2023-10-16T15:48:51.602Z,7.70
2023-10-16T15:51:19.036Z,9.10
2023-10-16T15:53:50.661Z,4.45
2023-10-16T15:56:20.051Z,6.80
2023-10-16T15:58:46.948Z,5.00
2023-10-16T16:01:13.780Z,5.15
2023-10-16T16:03:43.947Z,5.77
2023-10-16T16:06:18.233Z,5.85
2023-10-16T16:09:00.971Z,4.40
2023-10-16T16:11:29.885Z,5.03
2023-10-16T16:13:58.219Z,6.68
2023-10-16T16:16:26.450Z,6.30
2023-10-16T16:18:53.695Z,7.68
2023-10-16T16:21:21.622Z,4.63
2023-10-16T16:23:50.091Z,6.00
2023-10-16T16:26:17.659Z,9.27
2023-10-16T16:28:47.346Z,6.53
2023-10-16T16:33:43.784Z,6.65
2023-10-16T16:36:12.995Z,5.03
2023-10-16T16:38:40.483Z,5.75
2023-10-16T16:41:07.491Z,4.23
2023-10-16T16:43:34.960Z,7.25
2023-10-16T16:46:01.944Z,6.32
2023-10-16T16:48:29.152Z,6.47
2023-10-16T16:50:57.514Z,10.15
2023-10-16T16:53:24.971Z,6.90
2023-10-16T16:55:51.806Z,6.15
2023-10-16T16:58:18.743Z,8.75
2023-10-16T17:00:45.568Z,3.85
2023-10-16T17:03:12.579Z,4.28
2023-10-16T17:05:40.065Z,4.53
2023-10-16T17:08:07.303Z,5.05
2023-10-16T17:10:34.248Z,6.57
2023-10-16T17:13:01.083Z,4.80
2023-10-16T17:15:27.954Z,4.45
2023-10-16T17:17:55.687Z,6.97
2023-10-16T17:20:23.093Z,3.53
2023-10-16T17:25:23.635Z,2.88
2023-10-16T17:27:52.252Z,6.65
2023-10-16T17:30:20.324Z,4.77
2023-10-16T17:32:50.436Z,4.32
2023-10-16T17:35:28.253Z,3.30
2023-10-16T17:37:55.224Z,2.63
2023-10-16T17:40:22.043Z,5.70
2023-10-16T17:42:48.897Z,4.23
2023-10-16T17:45:16.088Z,4.43
2023-10-16T17:47:45.189Z,5.55
2023-10-16T17:50:12.614Z,6.22
2023-10-16T17:52:51.051Z,6.28
2023-10-16T17:55:21.371Z,6.67
2023-10-16T17:57:48.389Z,4.38
2023-10-16T18:00:16.173Z,5.15
2023-10-16T18:02:45.037Z,6.00
2023-10-16T18:05:12.305Z,6.38
2023-10-16T18:07:42.542Z,7.67
2023-10-16T18:10:10.264Z,7.68
2023-10-16T18:12:37.123Z,6.57
2023-10-16T18:15:09.630Z,6.38
2023-10-16T18:17:37.629Z,5.57
2023-10-16T18:20:08.859Z,6.77
2023-10-16T18:22:37.804Z,5.22
2023-10-16T18:25:05.259Z,5.93
2023-10-16T18:27:35.023Z,5.57
2023-10-16T18:30:02.001Z,6.75
2023-10-16T18:32:29.278Z,7.43
2023-10-16T18:34:56.323Z,6.63
2023-10-16T18:37:23.312Z,8.80
2023-10-16T18:39:52.369Z,7.22
2023-10-16T18:42:21.148Z,5.97
2023-10-16T18:44:50.910Z,5.97
2023-10-16T18:47:18.701Z,10.95
2023-10-16T18:49:45.923Z,10.82
2023-10-16T18:52:12.835Z,5.40
2023-10-16T18:54:39.833Z,6.05
2023-10-16T18:57:10.575Z,6.37
2023-10-16T18:59:38.401Z,6.43
2023-10-16T19:02:05.739Z,6.55
2023-10-16T19:04:32.702Z,7.50
2023-10-16T19:06:59.589Z,7.75
2023-10-16T19:09:28.571Z,7.83
2023-10-16T19:11:56.891Z,8.90
2023-10-16T19:14:25.015Z,7.03
2023-10-16T19:16:52.169Z,4.85
2023-10-16T19:19:19.969Z,8.45
2023-10-16T19:21:46.847Z,7.43
2023-10-16T19:24:13.999Z,6.07
2023-10-16T19:26:42.363Z,7.32
2023-10-16T19:29:09.238Z,10.10
2023-10-16T19:31:36.203Z,7.32
2023-10-16T19:34:03.228Z,6.97
2023-10-16T19:36:32.854Z,7.68
2023-10-16T19:38:59.806Z,8.75
2023-10-16T19:41:32.435Z,8.07
2023-10-16T19:44:01.583Z,10.73
2023-10-16T19:46:30.871Z,8.23
2023-10-16T19:48:58.031Z,6.93
2023-10-16T19:51:25.090Z,8.23
2023-10-16T19:53:56.151Z,10.77
2023-10-16T19:56:24.379Z,8.68
2023-10-16T19:58:53.608Z,9.00
2023-10-16T20:01:23.930Z,9.05
2023-10-16T20:03:53.517Z,13.02
2023-10-16T20:06:20.951Z,9.93
2023-10-16T20:08:47.954Z,12.70
2023-10-16T20:11:15.221Z,10.43
2023-10-16T20:13:45.049Z,11.07
2023-10-16T20:16:14.941Z,9.15
2023-10-16T20:18:42.383Z,11.48
2023-10-16T20:21:13.746Z,10.82
2023-10-16T20:23:41.076Z,12.70
2023-10-16T20:26:18.555Z,11.60
2023-10-16T20:28:51.328Z,6.28
2023-10-16T20:31:19.903Z,8.30
2023-10-16T20:33:49.786Z,7.28
2023-10-16T20:36:18.285Z,13.17
2023-10-16T20:38:45.545Z,9.73
2023-10-16T20:41:13.998Z,8.57
2023-10-16T20:43:41.125Z,10.07
2023-10-16T20:46:08.153Z,10.98
2023-10-16T20:48:36.961Z,9.13
2023-10-16T20:51:05.317Z,9.88
2023-10-16T20:53:32.437Z,8.38
2023-10-16T20:55:59.380Z,14.48
2023-10-16T20:58:26.284Z,7.88
2023-10-16T21:00:56.664Z,9.13
2023-10-16T21:03:24.740Z,9.80
2023-10-16T21:05:52.163Z,10.35
2023-10-16T21:08:20.298Z,13.10
2023-10-16T21:10:47.541Z,8.70
2023-10-16T21:13:14.460Z,9.90
2023-10-16T21:15:43.466Z,10.13
2023-10-16T21:18:11.674Z,7.65
2023-10-16T21:20:38.990Z,10.13
2023-10-16T21:23:06.427Z,8.45
2023-10-16T21:25:34.187Z,12.77
2023-10-16T21:28:02.491Z,8.50
2023-10-16T21:30:30.082Z,12.73
2023-10-16T21:32:57.880Z,10.05
2023-10-16T21:35:26.159Z,11.75
2023-10-16T21:37:53.575Z,9.57
2023-10-16T21:40:23.021Z,8.40
2023-10-16T21:42:50.969Z,11.20
2023-10-16T21:45:18.248Z,9.57
2023-10-16T21:47:45.960Z,14.88
2023-10-16T21:50:13.482Z,9.50
2023-10-16T21:52:40.586Z,9.38
2023-10-16T21:55:08.057Z,14.23
2023-10-16T21:57:35.957Z,14.10
2023-10-16T22:00:12.834Z,14.18
2023-10-16T22:02:41.235Z,9.77
2023-10-16T22:05:12.800Z,10.68
2023-10-16T22:07:40.543Z,13.88
2023-10-16T22:10:10.883Z,14.18
2023-10-16T22:12:38.163Z,14.85
2023-10-16T22:15:11.208Z,17.50
2023-10-16T22:17:38.859Z,14.98
2023-10-16T22:20:10.059Z,16.17
2023-10-16T22:22:37.083Z,12.40
2023-10-16T22:25:05.970Z,15.02
2023-10-16T22:27:33.610Z,11.30
2023-10-16T22:30:01.266Z,11.45
2023-10-16T22:32:28.299Z,11.90
2023-10-16T22:34:55.166Z,13.35
2023-10-16T22:37:22.035Z,14.23
2023-10-16T22:39:49.017Z,10.07
2023-10-16T22:42:16.985Z,12.43
2023-10-16T22:44:43.967Z,11.93
2023-10-16T22:47:11.049Z,9.90
2023-10-16T22:49:38.028Z,16.10
2023-10-16T22:52:05.046Z,13.67
2023-10-16T22:54:32.704Z,11.05
2023-10-16T22:57:01.048Z,10.98
2023-10-16T22:59:27.962Z,8.65
2023-10-16T23:01:54.839Z,7.97
2023-10-16T23:04:21.810Z,10.80
2023-10-16T23:06:51.402Z,12.00
2023-10-16T23:09:30.688Z,11.02
2023-10-16T23:12:10.491Z,10.75
2023-10-16T23:14:43.748Z,11.57
2023-10-16T23:17:11.182Z,12.20
2023-10-16T23:19:38.845Z,10.43
2023-10-16T23:22:06.365Z,8.80
2023-10-16T23:24:33.232Z,11.25
2023-10-16T23:27:00.745Z,8.82
2023-10-16T23:29:27.852Z,10.63
2023-10-16T23:31:56.310Z,9.80
2023-10-16T23:34:23.245Z,11.48
2023-10-16T23:36:57.694Z,14.93
2023-10-16T23:39:30.438Z,9.45
2023-10-16T23:42:18.194Z,8.50
2023-10-16T23:44:47.317Z,10.02
2023-10-16T23:47:17.614Z,10.75
2023-10-16T23:49:47.741Z,9.38
2023-10-16T23:52:22.377Z,9.00
2023-10-16T23:55:11.024Z,13.40
2023-10-16T23:57:49.622Z,8.98
